Time;durP1;ratioP1;P1;durP2;ratioP2;P2;SDS_P1;SDS_P2;PMS_P1;PMS_P2;Temp;Humidity;BMP_temperature;BMP_pressure;BME280_temperature;BME280_humidity;BME280_pressure;Samples;Min_cycle;Max_cycle;Signal;HPM_P1;HPM_P2
2024/03/07 00:02:20;;;;;;;26.50;15.30;;;;;;;3.18;87.88;101091.29;129690;1268;114825;-66
2024/03/07 00:05:25;;;;;;;30.70;17.80;;;;;;;3.14;87.91;101094.48;129186;1264;329140;-66
2024/03/07 00:08:27;;;;;;;33.60;18.50;;;;;;;3.10;87.82;101093.98;129528;1278;129094;-68
2024/03/07 00:11:30;;;;;;;36.00;19.00;;;;;;;3.08;87.75;101096.09;129719;1265;115352;-68
2024/03/07 00:14:35;;;;;;;35.00;19.30;;;;;;;3.06;87.93;101095.94;129403;1259;114724;-67
2024/03/07 00:17:38;;;;;;;28.70;15.10;;;;;;;3.03;87.97;101094.90;129759;1258;114747;-67
2024/03/07 00:20:39;;;;;;;30.00;16.70;;;;;;;3.00;87.86;101093.15;129662;1260;114751;-67
2024/03/07 00:23:41;;;;;;;34.10;17.40;;;;;;;2.99;87.99;101094.39;129708;1260;114743;-68
2024/03/07 00:26:43;;;;;;;25.80;13.20;;;;;;;2.97;87.91;101099.89;129499;1282;128062;-67
2024/03/07 00:29:52;;;;;;;32.80;17.20;;;;;;;2.94;87.87;101094.77;129679;1263;114807;-67
2024/03/07 00:32:58;;;;;;;16.20;10.20;;;;;;;2.92;87.83;101096.71;129634;1259;115346;-64
2024/03/07 00:35:59;;;;;;;20.90;10.50;;;;;;;2.91;87.86;101094.95;129609;1266;114862;-64
2024/03/07 00:39:01;;;;;;;34.90;17.40;;;;;;;2.89;87.86;101094.26;129670;1264;114744;-66
2024/03/07 00:42:03;;;;;;;32.80;15.50;;;;;;;2.87;87.86;101094.45;129773;1259;114729;-66
2024/03/07 00:45:06;;;;;;;32.20;15.80;;;;;;;2.85;87.68;101091.45;129914;1264;128543;-67
2024/03/07 00:48:09;;;;;;;19.30;11.30;;;;;;;2.85;87.81;101092.16;129696;1265;114767;-67
2024/03/07 00:51:11;;;;;;;22.10;11.80;;;;;;;2.83;87.77;101093.23;129669;1264;114747;-67
2024/03/07 00:54:13;;;;;;;33.50;17.90;;;;;;;2.81;87.70;101094.30;129730;1259;115001;-65
2024/03/07 00:57:15;;;;;;;28.00;15.60;;;;;;;2.80;87.74;101090.61;129693;1259;114854;-67
2024/03/07 01:00:21;;;;;;;31.10;17.90;;;;;;;2.79;87.60;101088.67;129693;1259;115306;-67
2024/03/07 01:03:24;;;;;;;27.50;13.90;;;;;;;2.79;87.52;101085.84;129508;1268;128646;-67
2024/03/07 01:06:26;;;;;;;31.50;17.40;;;;;;;2.78;87.35;101082.67;129746;1282;114846;-67
2024/03/07 01:09:28;;;;;;;27.20;14.30;;;;;;;2.77;87.26;101080.56;129698;1265;115079;-68
2024/03/07 01:12:30;;;;;;;20.60;13.00;;;;;;;2.78;87.15;101083.02;129805;1264;115211;-66
2024/03/07 01:15:33;;;;;;;26.40;13.90;;;;;;;2.77;87.07;101082.15;129737;1282;114771;-66
2024/03/07 01:18:35;;;;;;;26.90;15.00;;;;;;;2.77;87.15;101080.56;129684;1264;115262;-68
2024/03/07 01:21:37;;;;;;;31.00;15.80;;;;;;;2.78;86.90;101080.74;129832;1275;114843;-67
2024/03/07 01:24:39;;;;;;;29.70;15.10;;;;;;;2.77;86.70;101080.21;129870;1260;114741;-68
2024/03/07 01:27:41;;;;;;;29.50;15.50;;;;;;;2.77;86.73;101080.38;129722;1262;114876;-66
2024/03/07 01:30:43;;;;;;;29.00;14.90;;;;;;;2.77;86.51;101080.73;129693;1282;115207;-67
2024/03/07 01:33:45;;;;;;;18.20;10.00;;;;;;;2.77;86.69;101078.61;129696;1264;114791;-66
2024/03/07 01:36:47;;;;;;;24.40;15.90;;;;;;;2.78;86.55;101077.73;129885;1282;114703;-68
2024/03/07 01:39:49;;;;;;;23.00;12.90;;;;;;;2.79;86.42;101081.78;129639;1259;114769;-68
2024/03/07 01:42:51;;;;;;;27.20;13.60;;;;;;;2.78;86.44;101080.91;129709;1259;114767;-67
2024/03/07 01:45:55;;;;;;;28.20;14.80;;;;;;;2.78;86.49;101081.27;129566;1278;127452;-68
2024/03/07 01:48:58;;;;;;;27.20;13.90;;;;;;;2.78;86.49;101079.50;129424;1282;114714;-67
2024/03/07 01:52:01;;;;;;;24.20;11.60;;;;;;;2.77;86.27;101080.56;129468;1282;114790;-66
2024/03/07 01:55:03;;;;;;;26.50;15.00;;;;;;;2.76;86.14;101082.34;129851;1265;114694;-67
2024/03/07 01:58:07;;;;;;;21.30;12.80;;;;;;;2.74;86.16;101082.86;129653;1259;114783;-66
2024/03/07 02:01:09;;;;;;;27.90;15.70;;;;;;;2.74;86.06;101085.52;129658;1263;114851;-67
2024/03/07 02:04:11;;;;;;;26.00;14.50;;;;;;;2.72;86.10;101084.46;129715;1260;115466;-67
2024/03/07 02:07:13;;;;;;;29.70;13.30;;;;;;;2.72;86.02;101083.77;129657;1261;114748;-68
2024/03/07 02:10:16;;;;;;;24.20;13.50;;;;;;;2.72;86.01;101084.48;129684;1265;115107;-66
2024/03/07 02:13:18;;;;;;;15.40;8.70;;;;;;;2.71;85.96;101084.30;129717;1266;114741;-64
2024/03/07 02:16:20;;;;;;;20.90;11.40;;;;;;;2.69;86.08;101082.72;129823;1282;114730;-67
2024/03/07 02:19:23;;;;;;;24.60;14.50;;;;;;;2.66;85.77;101079.20;129796;1260;114829;-66
2024/03/07 02:22:26;;;;;;;19.30;10.50;;;;;;;2.63;85.76;101080.81;129685;1266;114863;-65
2024/03/07 02:25:28;;;;;;;21.20;10.20;;;;;;;2.60;85.66;101080.28;129651;1265;114809;-67
2024/03/07 02:28:30;;;;;;;24.80;12.50;;;;;;;2.57;85.70;101082.58;129763;1265;114650;-66
2024/03/07 02:31:36;;;;;;;27.40;13.70;;;;;;;2.55;85.56;101084.71;129772;1273;114817;-65
2024/03/07 02:34:38;;;;;;;19.70;10.80;;;;;;;2.51;85.71;101082.08;129687;1265;114736;-68
2024/03/07 02:37:40;;;;;;;21.60;12.70;;;;;;;2.48;85.57;101084.38;129716;1278;114734;-65
2024/03/07 02:40:42;;;;;;;24.90;13.60;;;;;;;2.44;85.65;101082.63;129781;1282;114739;-68
2024/03/07 02:43:44;;;;;;;31.30;15.50;;;;;;;2.39;85.75;101083.17;129544;1267;128082;-66
2024/03/07 02:46:49;;;;;;;28.60;15.20;;;;;;;2.35;85.68;101087.77;129703;1274;115201;-67
2024/03/07 02:49:51;;;;;;;26.80;14.50;;;;;;;2.31;85.77;101092.73;129692;1265;114812;-68
2024/03/07 02:52:53;;;;;;;25.50;13.90;;;;;;;2.27;85.67;101088.67;129735;1263;114847;-68
2024/03/07 02:55:55;;;;;;;22.70;13.00;;;;;;;2.25;85.71;101082.52;129888;1263;114831;-67
2024/03/07 02:58:57;;;;;;;21.90;13.00;;;;;;;2.20;85.72;101083.41;129700;1282;114777;-67
2024/03/07 03:01:59;;;;;;;21.90;11.20;;;;;;;2.15;85.73;101087.30;129651;1263;114937;-67
2024/03/07 03:05:01;;;;;;;21.40;11.80;;;;;;;2.08;85.73;101092.41;129761;1282;114754;-67
2024/03/07 03:08:06;;;;;;;19.90;9.80;;;;;;;2.01;85.64;101090.84;129511;1264;114853;-66
2024/03/07 03:11:09;;;;;;;;;;;;;;;1.95;85.81;101092.09;129701;1263;114829;-68
2024/03/07 03:14:13;;;;;;;20.70;11.10;;;;;;;1.87;86.00;101091.56;129747;1265;114743;-67
2024/03/07 03:17:15;;;;;;;18.80;9.30;;;;;;;1.81;86.05;101096.14;129734;1264;115065;-65
2024/03/07 03:20:33;;;;;;;29.40;14.30;;;;;;;1.73;86.13;101092.27;129705;1259;114737;-67
2024/03/07 03:23:35;;;;;;;27.10;15.10;;;;;;;1.67;86.03;101097.20;129514;1282;114828;-66
2024/03/07 03:26:37;;;;;;;22.50;11.70;;;;;;;1.63;86.48;101099.15;129709;1259;114751;-63
2024/03/07 03:29:40;;;;;;;23.50;13.10;;;;;;;1.60;86.52;101098.09;129718;1265;115358;-67
2024/03/07 03:32:42;;;;;;;28.60;14.20;;;;;;;1.56;86.31;101100.56;129702;1265;114831;-64
2024/03/07 03:35:44;;;;;;;12.80;6.30;;;;;;;1.53;86.42;101100.73;129685;1281;115301;-66
2024/03/07 03:38:46;;;;;;;23.10;12.70;;;;;;;1.48;86.69;101100.38;129719;1277;115351;-66
2024/03/07 03:41:48;;;;;;;25.90;13.20;;;;;;;1.43;86.73;101100.36;129671;1265;127944;-66
2024/03/07 03:44:53;;;;;;;22.90;11.00;;;;;;;1.40;86.81;101101.60;129577;1265;114889;-63
2024/03/07 03:47:55;;;;;;;28.20;14.80;;;;;;;1.39;86.90;101104.06;129464;1267;114886;-63
2024/03/07 03:50:57;;;;;;;20.90;9.40;;;;;;;1.38;87.14;101104.05;129691;1265;114745;-68
2024/03/07 03:53:59;;;;;;;25.50;13.40;;;;;;;1.39;87.50;101104.77;129718;1265;114742;-67
2024/03/07 03:57:04;;;;;;;24.30;12.90;;;;;;;1.41;87.72;101105.81;129570;1259;114891;-66
2024/03/07 04:00:12;;;;;;;29.10;13.60;;;;;;;1.45;87.31;101104.77;129642;1282;128524;-67
2024/03/07 04:03:14;;;;;;;26.10;11.90;;;;;;;1.50;87.67;101106.72;129379;1274;115425;-66
2024/03/07 04:06:16;;;;;;;27.10;15.10;;;;;;;1.56;87.77;101103.54;129717;1265;114759;-69
2024/03/07 04:09:19;;;;;;;23.20;12.90;;;;;;;1.63;87.75;101104.60;129813;1265;115716;-67
2024/03/07 04:12:21;;;;;;;25.00;11.90;;;;;;;1.71;87.73;101100.73;129539;1281;116540;-67
2024/03/07 04:15:26;;;;;;;23.80;13.00;;;;;;;1.77;87.75;101102.48;129653;1282;114803;-67
2024/03/07 04:18:28;;;;;;;24.50;12.60;;;;;;;1.84;87.75;101107.41;129667;1265;129018;-64
2024/03/07 04:21:30;;;;;;;26.30;14.50;;;;;;;1.90;87.76;101104.42;129663;1265;114722;-65
2024/03/07 04:24:32;;;;;;;27.70;15.00;;;;;;;1.96;87.58;101106.52;129892;1263;114740;-68
2024/03/07 04:27:36;;;;;;;25.80;13.20;;;;;;;2.02;87.67;101106.69;129458;1267;114866;-66
2024/03/07 04:30:38;;;;;;;28.00;14.30;;;;;;;2.06;87.43;101108.63;129615;1268;114748;-66
2024/03/07 04:33:40;;;;;;;18.60;10.00;;;;;;;2.09;87.46;101109.33;129726;1259;115201;-68
2024/03/07 04:36:42;;;;;;;26.10;14.00;;;;;;;2.13;87.34;101114.09;129756;1265;115356;-66
2024/03/07 04:39:45;;;;;;;24.60;13.20;;;;;;;2.15;87.29;101113.73;129730;1266;128858;-64
2024/03/07 04:42:49;;;;;;;28.90;15.20;;;;;;;2.17;87.24;101110.90;129633;1282;114791;-67
2024/03/07 04:45:51;;;;;;;16.70;8.80;;;;;;;2.19;87.18;101113.89;129626;1259;114806;-64
2024/03/07 04:48:53;;;;;;;23.60;12.80;;;;;;;2.21;87.02;101111.79;129698;1264;115397;-68
2024/03/07 04:51:59;;;;;;;27.70;15.50;;;;;;;2.21;87.08;101113.36;129725;1259;114831;-68
2024/03/07 04:55:01;;;;;;;;;;;;;;;2.22;87.13;101112.48;129357;1282;114868;-66
2024/03/07 04:58:03;;;;;;;26.20;13.40;;;;;;;2.23;87.15;101115.30;129655;1275;114739;-67
2024/03/07 05:01:05;;;;;;;24.10;13.00;;;;;;;2.22;86.91;101118.48;129708;1259;115098;-67
2024/03/07 05:04:07;;;;;;;16.30;9.30;;;;;;;2.24;86.88;101121.11;129799;1282;114881;-67
2024/03/07 05:07:09;;;;;;;24.40;12.00;;;;;;;2.24;86.90;101124.64;129652;1260;115276;-68
2024/03/07 05:10:11;;;;;;;23.80;13.80;;;;;;;2.23;86.93;101126.93;129861;1265;114804;-66
2024/03/07 05:13:13;;;;;;;24.20;14.20;;;;;;;2.24;86.92;101130.09;129689;1259;114761;-67
2024/03/07 05:16:15;;;;;;;21.00;11.70;;;;;;;2.25;86.84;101134.15;129711;1264;114806;-66
2024/03/07 05:19:17;;;;;;;23.10;13.90;;;;;;;2.25;86.66;101134.86;129781;1274;114743;-67
2024/03/07 05:22:22;;;;;;;29.20;17.30;;;;;;;2.27;86.73;101133.63;129540;1259;127932;-66
2024/03/07 05:25:24;;;;;;;26.60;14.60;;;;;;;2.29;86.40;101133.27;129957;1275;114738;-67
2024/03/07 05:28:26;;;;;;;26.30;13.40;;;;;;;2.30;86.43;101135.04;129918;1263;114903;-67
2024/03/07 05:31:28;;;;;;;31.20;16.60;;;;;;;2.32;86.26;101134.14;129711;1274;114719;-67
2024/03/07 05:34:33;;;;;;;50.00;28.40;;;;;;;2.33;85.78;101138.36;129684;1278;114753;-67
2024/03/07 05:37:35;;;;;;;29.20;18.10;;;;;;;2.34;85.64;101135.89;129671;1273;114744;-67
2024/03/07 05:40:37;;;;;;;29.10;17.80;;;;;;;2.37;85.90;101142.77;129680;1265;114773;-67
2024/03/07 05:43:39;;;;;;;26.30;13.70;;;;;;;2.39;85.50;101145.23;129758;1260;115237;-68
2024/03/07 05:46:46;;;;;;;28.10;14.70;;;;;;;2.42;85.35;101146.81;129652;1278;114761;-67
2024/03/07 05:49:48;;;;;;;27.20;13.70;;;;;;;2.45;85.19;101147.52;129660;1265;114998;-67
2024/03/07 05:52:50;;;;;;;40.20;15.70;;;;;;;2.48;84.85;101152.09;129678;1263;114703;-66
2024/03/07 05:55:52;;;;;;;23.10;13.10;;;;;;;2.50;84.41;101150.15;129975;1265;114743;-68
2024/03/07 05:58:54;;;;;;;30.40;16.00;;;;;;;2.51;84.53;101153.84;129452;1280;114856;-66
2024/03/07 06:01:56;;;;;;;22.30;11.30;;;;;;;2.55;83.97;101156.65;129655;1265;114767;-66
2024/03/07 06:04:58;;;;;;;19.50;10.60;;;;;;;2.55;82.97;101158.43;129749;1265;114658;-67
2024/03/07 06:08:00;;;;;;;15.50;8.60;;;;;;;2.57;82.95;101155.94;129681;1265;114732;-67
2024/03/07 06:11:02;;;;;;;32.00;16.10;;;;;;;2.57;82.13;101161.77;129713;1264;114821;-68
2024/03/07 06:14:06;;;;;;;24.30;13.30;;;;;;;2.61;82.29;101165.46;129812;1273;115313;-66
2024/03/07 06:17:08;;;;;;;24.60;15.20;;;;;;;2.62;81.48;101166.69;129709;1265;114780;-66
2024/03/07 06:20:22;;;;;;;32.60;17.10;;;;;;;2.65;82.00;101167.73;129681;1264;114837;-66
2024/03/07 06:23:28;;;;;;;28.50;13.40;;;;;;;2.70;81.40;101168.09;129516;1267;128459;-69
2024/03/07 06:26:46;;;;;;;24.90;14.50;;;;;;;2.74;81.47;101172.98;129483;1267;115335;-67
2024/03/07 06:29:50;;;;;;;24.00;14.50;;;;;;;2.80;81.41;101173.34;129563;1269;114914;-68
2024/03/07 06:32:52;;;;;;;16.00;8.30;;;;;;;2.86;80.95;101178.97;129750;1273;115437;-66
2024/03/07 06:35:55;;;;;;;19.60;11.90;;;;;;;2.86;80.06;101184.08;129687;1265;114735;-66
2024/03/07 06:38:57;;;;;;;22.40;13.30;;;;;;;2.89;80.10;101186.36;129736;1282;115198;-68
2024/03/07 06:42:00;;;;;;;25.20;14.10;;;;;;;2.92;80.04;101187.41;129740;1264;115457;-68
2024/03/07 06:45:03;;;;;;;29.50;17.60;;;;;;;2.96;80.29;101190.58;129657;1263;114831;-67
2024/03/07 06:48:09;;;;;;;29.10;16.10;;;;;;;3.00;80.10;101191.79;129596;1259;114788;-64
2024/03/07 06:51:12;;;;;;;32.60;15.30;;;;;;;3.03;79.69;101192.48;129156;1268;114793;-64
2024/03/07 06:54:14;;;;;;;23.50;12.40;;;;;;;3.07;79.82;101195.47;129713;1265;114775;-67
2024/03/07 06:57:17;;;;;;;21.00;12.40;;;;;;;3.10;79.52;101197.22;129752;1273;114744;-67
2024/03/07 07:00:19;;;;;;;28.80;14.40;;;;;;;3.12;79.14;101197.39;129466;1274;128723;-68
2024/03/07 07:03:22;;;;;;;22.00;12.90;;;;;;;3.15;79.00;101201.43;129652;1259;114702;-67
2024/03/07 07:06:26;;;;;;;21.70;12.50;;;;;;;3.16;78.62;101200.72;129680;1265;114792;-68
2024/03/07 07:09:27;;;;;;;23.70;12.30;;;;;;;3.17;78.28;101203.19;129716;1265;115467;-67
2024/03/07 07:12:29;;;;;;;25.60;13.30;;;;;;;3.21;78.74;101201.95;129711;1260;114974;-67
2024/03/07 07:15:31;;;;;;;19.30;9.30;;;;;;;3.27;78.80;101199.08;129427;1273;115543;-67
2024/03/07 07:18:35;;;;;;;22.10;12.80;;;;;;;3.32;78.82;101195.54;129627;1265;115144;-67
2024/03/07 07:21:37;;;;;;;22.20;12.60;;;;;;;3.41;78.85;101196.37;129700;1264;114819;-67
2024/03/07 07:24:39;;;;;;;16.60;9.10;;;;;;;3.46;78.13;101199.52;129839;1265;114805;-68
2024/03/07 07:27:51;;;;;;;19.20;10.70;;;;;;;3.46;77.53;101201.11;129997;1281;114716;-66
2024/03/07 07:30:53;;;;;;;31.10;14.70;;;;;;;3.45;77.50;101200.94;129506;1268;114962;-68
2024/03/07 07:33:55;;;;;;;30.30;15.40;;;;;;;3.47;77.70;101202.16;129688;1269;115109;-67
2024/03/07 07:37:00;;;;;;;36.90;18.40;;;;;;;3.48;77.31;101204.98;129750;1264;114820;-68
2024/03/07 07:40:03;;;;;;;37.20;16.90;;;;;;;3.49;77.63;101201.96;129757;1263;128319;-68
2024/03/07 07:43:06;;;;;;;30.20;15.00;;;;;;;3.54;77.19;101203.54;129700;1263;114657;-67
2024/03/07 07:46:08;;;;;;;26.40;13.80;;;;;;;3.56;77.13;101204.41;129654;1263;114763;-68
2024/03/07 07:49:10;;;;;;;28.90;14.80;;;;;;;3.60;77.27;101202.44;129757;1264;114795;-67
2024/03/07 07:52:12;;;;;;;25.60;13.30;;;;;;;3.63;76.60;101206.14;129501;1273;115416;-67
2024/03/07 07:55:17;;;;;;;27.10;14.10;;;;;;;3.66;76.41;101198.85;129640;1261;114827;-68
2024/03/07 07:58:19;;;;;;;28.30;15.50;;;;;;;3.71;75.94;101202.38;129525;1282;127488;-67
2024/03/07 08:01:21;;;;;;;28.70;16.30;;;;;;;3.74;75.97;101202.34;129648;1265;114824;-68
2024/03/07 08:04:23;;;;;;;28.70;15.00;;;;;;;3.79;75.88;101201.61;129752;1273;115122;-67
2024/03/07 08:07:25;;;;;;;24.80;13.20;;;;;;;3.85;76.01;101199.28;129361;1268;114918;-67
2024/03/07 08:10:28;;;;;;;21.20;12.80;;;;;;;3.95;75.46;101200.24;129691;1273;114799;-68
2024/03/07 08:13:30;;;;;;;22.90;14.40;;;;;;;4.04;73.91;101201.23;129725;1261;114739;-67
2024/03/07 08:16:32;;;;;;;22.70;12.00;;;;;;;4.10;73.88;101201.20;129763;1273;114816;-67
2024/03/07 08:19:34;;;;;;;19.10;11.40;;;;;;;4.21;73.79;101202.70;129646;1263;128679;-66
2024/03/07 08:22:36;;;;;;;23.00;14.00;;;;;;;4.31;73.68;101203.14;129679;1263;114759;-67
2024/03/07 08:25:41;;;;;;;21.80;12.10;;;;;;;4.44;72.85;101204.77;129741;1265;115268;-64
2024/03/07 08:28:43;;;;;;;21.10;13.30;;;;;;;4.52;73.11;101203.48;129448;1260;114815;-64
2024/03/07 08:31:45;;;;;;;22.00;12.50;;;;;;;4.57;72.54;101203.08;129706;1264;115273;-65
2024/03/07 08:34:47;;;;;;;21.20;11.80;;;;;;;4.66;72.71;101206.52;129763;1263;114762;-68
2024/03/07 08:37:54;;;;;;;14.30;7.50;;;;;;;4.77;72.22;101204.63;129438;1264;116099;-68
2024/03/07 08:40:56;;;;;;;17.40;10.40;;;;;;;4.80;70.89;101201.42;129428;1272;128119;-65
2024/03/07 08:43:58;;;;;;;22.80;13.90;;;;;;;4.76;70.89;101196.84;129652;1264;114814;-68
2024/03/07 08:47:00;;;;;;;19.30;12.40;;;;;;;4.84;71.62;101197.48;129689;1264;114843;-67
2024/03/07 08:50:08;;;;;;;23.00;12.40;;;;;;;4.91;71.15;101200.41;129805;1265;114744;-67
2024/03/07 08:53:10;;;;;;;21.60;13.40;;;;;;;4.87;70.82;101200.27;129685;1265;114815;-64
2024/03/07 08:56:12;;;;;;;25.00;13.00;;;;;;;4.83;71.28;101202.09;129662;1270;115407;-64
2024/03/07 08:59:17;;;;;;;17.80;10.00;;;;;;;4.79;70.89;101207.09;129809;1261;114703;-64
2024/03/07 09:02:19;;;;;;;19.70;12.20;;;;;;;4.67;69.81;101208.98;129670;1265;129101;-63
2024/03/07 09:05:22;;;;;;;20.00;12.70;;;;;;;4.51;69.31;101209.66;129637;1273;114824;-67
2024/03/07 09:08:24;;;;;;;19.30;11.10;;;;;;;4.38;70.02;101210.15;129708;1273;114872;-64
2024/03/07 09:11:26;;;;;;;19.30;11.90;;;;;;;4.30;70.00;101205.45;129879;1276;114753;-65
2024/03/07 09:14:28;;;;;;;19.70;11.90;;;;;;;4.28;69.89;101210.06;129563;1273;114979;-65
2024/03/07 09:17:30;;;;;;;23.60;13.30;;;;;;;4.19;69.32;101206.95;129785;1264;115184;-64
2024/03/07 09:20:32;;;;;;;24.80;12.90;;;;;;;4.13;69.42;101206.13;129981;1278;114828;-66
2024/03/07 09:23:33;;;;;;;22.80;13.20;;;;;;;4.09;69.03;101209.69;129646;1263;128603;-65
2024/03/07 09:26:35;;;;;;;21.10;13.80;;;;;;;4.04;69.26;101210.98;129738;1263;114745;-65
2024/03/07 09:29:37;;;;;;;25.30;15.10;;;;;;;4.03;69.20;101205.33;129882;1273;114911;-65
2024/03/07 09:32:40;;;;;;;16.10;9.50;;;;;;;4.07;69.78;101209.35;129800;1259;114813;-65
2024/03/07 09:35:42;;;;;;;18.70;10.50;;;;;;;4.10;69.58;101210.21;129676;1259;115122;-65
2024/03/07 09:38:44;;;;;;;19.90;10.50;;;;;;;4.09;68.77;101211.99;129641;1266;115461;-65
2024/03/07 09:41:46;;;;;;;19.60;13.80;;;;;;;4.05;68.33;101215.38;129783;1264;115539;-65
2024/03/07 09:44:49;;;;;;;15.80;10.00;;;;;;;4.02;68.05;101217.17;129741;1261;129404;-65
2024/03/07 09:47:52;;;;;;;12.90;7.70;;;;;;;4.00;68.10;101217.73;129638;1273;114839;-65
2024/03/07 09:50:55;;;;;;;22.90;12.20;;;;;;;3.95;68.09;101217.94;129664;1273;114763;-64
2024/03/07 09:54:00;;;;;;;16.00;9.50;;;;;;;3.90;67.73;101222.73;129647;1263;115317;-65
2024/03/07 09:57:02;;;;;;;;;;;;;;;3.84;67.62;101226.48;129680;1264;114733;-65
2024/03/07 10:00:06;;;;;;;20.00;10.90;;;;;;;3.78;68.08;101222.46;129621;1273;116599;-65
2024/03/07 10:03:09;;;;;;;22.20;12.30;;;;;;;3.77;68.00;101221.59;129754;1271;114904;-65
2024/03/07 10:06:11;;;;;;;16.20;9.50;;;;;;;3.79;68.66;101219.27;129643;1274;114750;-65
2024/03/07 10:09:14;;;;;;;23.30;13.50;;;;;;;3.89;68.77;101214.97;129787;1264;114748;-65
2024/03/07 10:12:16;;;;;;;16.80;8.70;;;;;;;4.13;68.59;101214.43;129495;1266;114980;-65
2024/03/07 10:15:19;;;;;;;22.30;13.30;;;;;;;4.37;68.21;101211.58;129695;1273;115178;-68
2024/03/07 10:18:22;;;;;;;18.50;11.30;;;;;;;4.58;67.88;101214.03;129630;1264;114830;-65
2024/03/07 10:21:24;;;;;;;24.30;13.70;;;;;;;4.80;67.99;101216.46;129692;1260;114818;-67
2024/03/07 10:24:26;;;;;;;21.80;12.70;;;;;;;4.97;67.18;101212.55;129696;1265;115443;-65
2024/03/07 10:27:28;;;;;;;19.90;12.70;;;;;;;5.11;67.22;101211.15;129850;1266;114725;-65
2024/03/07 10:30:30;;;;;;;19.70;12.30;;;;;;;5.31;66.68;101209.30;129556;1276;114849;-64
2024/03/07 10:33:34;;;;;;;21.10;12.30;;;;;;;5.52;66.78;101210.26;129720;1273;115133;-65
2024/03/07 10:36:35;;;;;;;17.40;11.00;;;;;;;5.77;66.04;101207.25;129679;1261;114860;-65
2024/03/07 10:39:37;;;;;;;13.80;8.60;;;;;;;5.94;65.29;101201.48;129664;1263;115287;-67
2024/03/07 10:42:45;;;;;;;17.40;10.50;;;;;;;6.02;64.29;101199.09;129768;1260;114786;-65
2024/03/07 10:45:51;;;;;;;17.90;11.80;;;;;;;6.10;63.88;101203.56;129734;1277;114859;-65
2024/03/07 10:48:56;;;;;;;18.70;12.10;;;;;;;6.21;64.53;101199.30;129537;1261;114920;-65
2024/03/07 10:52:00;;;;;;;18.20;12.20;;;;;;;6.34;63.91;101196.07;129789;1259;114832;-65
2024/03/07 10:55:11;;;;;;;14.60;9.00;;;;;;;6.46;64.34;101192.13;129949;1282;114803;-65
2024/03/07 10:58:37;;;;;;;18.40;10.80;;;;;;;6.65;63.69;101191.25;130011;1265;129085;-66
2024/03/07 11:01:49;;;;;;;16.20;10.20;;;;;;;6.64;61.39;101190.73;129745;1263;115098;-66
2024/03/07 11:04:51;;;;;;;15.10;9.70;;;;;;;6.54;62.40;101191.81;129451;1275;115089;-65
2024/03/07 11:07:54;;;;;;;17.90;10.80;;;;;;;6.60;62.54;101192.77;129698;1264;114905;-67
2024/03/07 11:10:56;;;;;;;16.80;11.70;;;;;;;6.67;62.33;101189.09;129822;1264;114707;-65
2024/03/07 11:13:59;;;;;;;15.60;10.30;;;;;;;6.63;60.85;101188.80;129525;1264;114883;-65
2024/03/07 11:17:01;;;;;;;16.10;9.60;;;;;;;6.57;61.50;101188.02;129608;1264;114879;-65
2024/03/07 11:20:23;;;;;;;12.50;8.60;;;;;;;6.60;61.60;101182.28;129646;1264;114904;-65
2024/03/07 11:23:30;;;;;;;11.80;7.30;;;;;;;6.59;59.90;101185.16;129723;1259;114790;-65
2024/03/07 11:26:33;;;;;;;14.40;8.60;;;;;;;6.54;60.51;101182.21;129765;1263;115037;-69
2024/03/07 11:29:53;;;;;;;14.10;10.10;;;;;;;6.59;60.40;101181.08;129695;1273;114697;-69
2024/03/07 11:32:57;;;;;;;17.60;10.60;;;;;;;6.65;60.40;101181.48;129370;1266;127093;-65
2024/03/07 11:36:01;;;;;;;14.10;9.30;;;;;;;6.72;60.19;101181.52;129581;1270;115433;-68
2024/03/07 11:39:14;;;;;;;16.60;10.40;;;;;;;6.76;60.26;101174.36;129443;1264;114911;-69
2024/03/07 11:42:25;;;;;;;12.70;7.90;;;;;;;6.79;59.02;101171.82;129530;1271;115442;-65
2024/03/07 11:45:29;;;;;;;17.20;9.70;;;;;;;6.75;58.98;101167.98;129832;1264;114753;-65
2024/03/07 11:48:31;;;;;;;15.30;9.30;;;;;;;6.87;60.31;101161.89;129663;1264;128779;-66
2024/03/07 11:51:34;;;;;;;15.90;9.80;;;;;;;6.95;58.85;101158.17;129752;1282;114897;-68
2024/03/07 11:54:36;;;;;;;16.40;10.80;;;;;;;6.91;58.57;101153.83;129691;1261;114818;-68
2024/03/07 11:57:38;;;;;;;12.80;9.30;;;;;;;6.94;58.87;101147.35;129768;1264;114756;-68
2024/03/07 12:00:47;;;;;;;14.20;7.90;;;;;;;7.02;59.38;101141.87;129685;1261;114730;-67
2024/03/07 12:03:52;;;;;;;13.30;9.40;;;;;;;7.16;59.46;101140.31;129192;1282;299165;-66
2024/03/07 12:06:54;;;;;;;12.20;8.00;;;;;;;7.34;59.78;101135.48;129640;1260;128837;-67
2024/03/07 12:09:56;;;;;;;14.00;9.30;;;;;;;7.49;59.62;101134.27;129631;1261;114739;-67
2024/03/07 12:12:58;;;;;;;16.30;10.40;;;;;;;7.59;58.98;101130.82;129710;1276;114683;-67
2024/03/07 12:16:01;;;;;;;14.10;9.80;;;;;;;7.59;58.41;101125.85;129667;1264;114719;-67
2024/03/07 12:19:05;;;;;;;14.80;8.70;;;;;;;7.55;59.01;101123.81;129672;1264;114850;-67
2024/03/07 12:22:14;;;;;;;17.40;10.60;;;;;;;7.53;59.51;101122.42;129668;1270;114839;-68
2024/03/07 12:25:21;;;;;;;12.50;8.10;;;;;;;7.54;59.20;101119.21;129462;1282;127834;-68
2024/03/07 12:28:25;;;;;;;10.30;6.10;;;;;;;7.51;58.18;101119.64;129547;1259;114964;-67
2024/03/07 12:31:27;;;;;;;15.90;10.60;;;;;;;7.41;58.39;101116.49;129775;1261;114729;-68
2024/03/07 12:34:30;;;;;;;15.50;9.40;;;;;;;7.36;58.72;101117.84;129706;1264;114747;-67
2024/03/07 12:37:35;;;;;;;12.90;9.80;;;;;;;7.40;59.27;101114.55;129683;1265;114898;-67
2024/03/07 12:40:37;;;;;;;14.10;8.90;;;;;;;7.45;58.02;101114.98;129577;1266;127849;-67
2024/03/07 12:43:43;;;;;;;14.20;9.40;;;;;;;7.41;58.31;101113.27;129730;1282;114901;-67
2024/03/07 12:46:48;;;;;;;13.60;8.60;;;;;;;7.43;57.82;101116.09;129616;1261;114962;-67
2024/03/07 12:49:50;;;;;;;14.30;7.90;;;;;;;7.41;57.51;101120.94;129442;1261;114889;-68
2024/03/07 12:52:52;;;;;;;16.70;8.50;;;;;;;7.37;57.45;101122.98;129775;1264;114762;-67
2024/03/07 12:55:54;;;;;;;16.70;9.50;;;;;;;7.35;57.15;101124.27;129847;1264;114826;-67
2024/03/07 12:58:59;;;;;;;14.10;8.00;;;;;;;7.32;57.31;101123.08;129571;1282;127834;-67
2024/03/07 13:02:02;;;;;;;12.70;8.90;;;;;;;7.31;57.53;101121.33;129486;1267;115350;-68
2024/03/07 13:05:05;;;;;;;15.10;8.70;;;;;;;7.35;57.53;101124.81;129771;1263;114747;-66
2024/03/07 13:08:14;;;;;;;12.00;7.90;;;;;;;7.38;57.60;101127.39;129880;1282;114750;-65
2024/03/07 13:11:16;;;;;;;15.20;7.70;;;;;;;7.35;56.68;101127.13;129481;1267;114934;-67
2024/03/07 13:14:18;;;;;;;13.00;8.70;;;;;;;7.26;56.75;101129.28;129680;1282;114998;-67
2024/03/07 13:17:20;;;;;;;13.00;9.30;;;;;;;7.18;56.48;101126.08;129793;1282;114866;-67
2024/03/07 13:20:26;;;;;;;13.80;9.00;;;;;;;7.10;56.24;101129.63;129867;1282;114917;-64
2024/03/07 13:23:27;;;;;;;;;;;;;;;6.95;56.58;101128.70;129930;1259;115425;-67
2024/03/07 13:26:31;;;;;;;15.80;9.30;;;;;;;6.86;57.68;101128.53;129841;1282;114779;-67
2024/03/07 13:29:33;;;;;;;9.70;6.20;;;;;;;6.81;57.96;101131.64;129760;1282;114829;-68
2024/03/07 13:32:35;;;;;;;15.40;8.90;;;;;;;6.75;57.86;101135.67;129716;1282;114739;-68
2024/03/07 13:35:40;;;;;;;13.20;8.70;;;;;;;6.67;57.75;101134.24;129568;1276;128210;-67
2024/03/07 13:38:42;;;;;;;18.40;11.20;;;;;;;6.59;57.50;101135.65;129654;1259;114847;-66
2024/03/07 13:41:50;;;;;;;16.80;10.40;;;;;;;6.52;58.03;101135.41;129804;1260;114794;-67
2024/03/07 13:44:52;;;;;;;15.20;9.10;;;;;;;6.50;58.27;101132.62;129623;1264;114947;-67
2024/03/07 13:47:55;;;;;;;21.50;11.80;;;;;;;6.44;58.20;101131.14;129718;1282;114840;-66